Time;durP1;ratioP1;P1;durP2;ratioP2;P2;SDS_P1;SDS_P2;PMS_P1;PMS_P2;Temp;Humidity;BMP_temperature;BMP_pressure;BME280_temperature;BME280_humidity;BME280_pressure;Samples;Min_cycle;Max_cycle;Signal;HPM_P1;HPM_P2
2023/12/03 00:01:52;;;;;;;23.63;12.73;;;;;;;-1.88;100.00;99314.16;4844033;29;20502;-90
2023/12/03 00:04:18;;;;;;;22.50;13.48;;;;;;;-1.90;100.00;99315.84;4844081;29;20116;-90
2023/12/03 00:06:43;;;;;;;21.75;13.30;;;;;;;-1.99;100.00;99299.69;4859211;29;20041;-90
2023/12/03 00:09:09;;;;;;;23.73;12.32;;;;;;;-1.93;100.00;99315.03;4858899;29;20029;-90
2023/12/03 00:11:34;;;;;;;22.98;13.10;;;;;;;-1.89;100.00;99315.00;4859353;29;20398;-88
2023/12/03 00:14:00;;;;;;;20.10;12.05;;;;;;;-1.89;100.00;99320.13;4858885;29;20029;-90
2023/12/03 00:16:25;;;;;;;19.35;11.82;;;;;;;-1.89;100.00;99316.72;4843787;29;20435;-90
2023/12/03 00:18:51;;;;;;;20.00;12.25;;;;;;;-2.11;100.00;99288.66;4920445;29;20031;-90
2023/12/03 00:21:16;;;;;;;24.27;14.18;;;;;;;-1.83;100.00;99332.84;4938298;29;20106;-90
2023/12/03 00:23:41;;;;;;;26.77;13.10;;;;;;;-1.87;100.00;99328.59;4938219;29;20431;-90
2023/12/03 00:26:07;;;;;;;22.00;13.43;;;;;;;-1.89;100.00;99334.59;4938088;29;20484;-90
2023/12/03 00:28:33;;;;;;;19.95;11.68;;;;;;;-1.92;100.00;99335.44;4938371;29;20421;-90
2023/12/03 00:30:58;;;;;;;25.33;12.95;;;;;;;-1.85;100.00;99331.19;4937835;29;20027;-90
2023/12/03 00:33:23;;;;;;;19.23;12.13;;;;;;;-1.82;100.00;99346.47;4937623;29;20027;-89
2023/12/03 00:35:49;;;;;;;17.95;10.95;;;;;;;-1.78;100.00;99343.06;4937779;29;20035;-90
2023/12/03 00:38:14;;;;;;;19.15;11.60;;;;;;;-1.81;100.00;99351.59;4937662;29;20058;-90
2023/12/03 00:40:39;;;;;;;26.65;14.70;;;;;;;-1.77;100.00;99352.41;4955110;29;20473;-90
2023/12/03 00:43:05;;;;;;;24.77;14.15;;;;;;;-1.73;100.00;99345.59;4937485;29;20126;-89
2023/12/03 00:45:30;;;;;;;24.73;14.35;;;;;;;-1.70;100.00;99346.44;4937714;29;20113;-89
2023/12/03 00:47:56;;;;;;;21.52;12.77;;;;;;;-1.89;100.00;99325.22;4937334;29;20043;-90
2023/12/03 00:50:21;;;;;;;25.40;13.43;;;;;;;-1.99;100.00;99331.16;4937843;29;20532;-89
2023/12/03 00:52:47;;;;;;;18.02;10.68;;;;;;;-1.82;100.00;99351.56;4937761;29;20384;-90
2023/12/03 00:55:12;;;;;;;23.25;12.25;;;;;;;-1.88;100.00;99352.44;4937138;29;20023;-90
2023/12/03 00:57:37;;;;;;;18.55;10.75;;;;;;;-1.81;100.00;99364.34;4937533;29;20472;-90
2023/12/03 01:00:04;;;;;;;22.73;12.70;;;;;;;-1.75;100.00;99363.47;4937594;29;20107;-90
2023/12/03 01:02:29;;;;;;;20.17;12.27;;;;;;;-1.81;100.00;99358.41;4938907;29;20041;-89
2023/12/03 01:04:54;;;;;;;19.08;11.52;;;;;;;-1.77;100.00;99373.69;4940968;29;20023;-89
2023/12/03 01:07:20;;;;;;;19.17;10.93;;;;;;;-1.78;100.00;99374.53;4937801;29;20122;-89
2023/12/03 01:09:45;;;;;;;20.02;11.82;;;;;;;-1.77;100.00;99367.72;4937489;29;20384;-90
2023/12/03 01:12:10;;;;;;;20.05;11.80;;;;;;;-1.73;100.00;99382.19;4938053;29;20039;-89
2023/12/03 01:14:36;;;;;;;19.85;12.07;;;;;;;-1.71;100.00;99394.97;4940024;29;20151;-89
2023/12/03 01:17:01;;;;;;;21.20;12.10;;;;;;;-1.76;100.00;99382.22;4939849;29;20038;-90
2023/12/03 01:19:26;;;;;;;21.15;12.18;;;;;;;-1.97;100.00;99355.00;4939286;29;20113;-90
2023/12/03 01:21:52;;;;;;;20.15;12.18;;;;;;;-1.71;100.00;99400.06;4939773;29;20035;-90
2023/12/03 01:24:17;;;;;;;18.75;12.10;;;;;;;-1.74;100.00;99400.06;4953270;29;20079;-90
2023/12/03 01:26:43;;;;;;;20.13;11.25;;;;;;;-1.73;100.00;99406.88;4962424;28;20035;-89
2023/12/03 01:29:08;;;;;;;18.55;12.55;;;;;;;-1.81;100.00;99402.66;4962039;28;20033;-90
2023/12/03 01:31:33;;;;;;;20.10;12.13;;;;;;;-1.72;100.00;99408.59;4962109;28;20019;-89
2023/12/03 01:33:59;;;;;;;20.05;12.07;;;;;;;-1.82;100.00;99395.81;4950674;29;20031;-89
2023/12/03 01:36:24;;;;;;;18.27;11.25;;;;;;;-1.84;100.00;99397.53;4936391;29;20118;-89
2023/12/03 01:38:50;;;;;;;20.65;12.77;;;;;;;-1.71;100.00;99405.19;4936812;29;20071;-90
2023/12/03 01:41:15;;;;;;;19.58;12.20;;;;;;;-1.67;100.00;99407.72;4936325;29;20499;-88
2023/12/03 01:43:52;;;;;;;19.73;11.65;;;;;;;-1.69;100.00;99411.13;4937015;29;20103;-90
2023/12/03 01:46:19;;;;;;;19.38;12.02;;;;;;;-1.75;100.00;99409.44;4936473;29;20891;-90
2023/12/03 01:48:44;;;;;;;20.83;11.85;;;;;;;-1.76;100.00;99403.47;4936938;29;20165;-89
2023/12/03 01:51:11;;;;;;;17.58;11.38;;;;;;;-1.73;100.00;99414.53;4936690;29;20060;-90
2023/12/03 01:53:39;;;;;;;18.77;12.10;;;;;;;-1.79;100.00;99402.63;4936838;29;20037;-90
2023/12/03 01:56:05;;;;;;;20.52;12.40;;;;;;;-1.68;100.00;99410.28;4936578;29;20038;-90
2023/12/03 01:58:31;;;;;;;18.63;11.43;;;;;;;-1.81;100.00;99400.09;4936751;29;20397;-89
2023/12/03 02:00:56;;;;;;;20.55;12.55;;;;;;;-1.86;100.00;99411.97;4936881;29;20031;-90
2023/12/03 02:03:22;;;;;;;18.95;11.93;;;;;;;-1.86;100.00;99431.56;4936526;29;20113;-90
2023/12/03 02:05:48;;;;;;;17.85;11.52;;;;;;;-1.85;100.00;99417.97;4936974;29;20027;-89
2023/12/03 02:08:14;;;;;;;18.33;11.25;;;;;;;-1.83;100.00;99422.19;4936520;29;20082;-90
2023/12/03 02:10:39;;;;;;;18.55;10.88;;;;;;;-1.78;100.00;99422.19;4936756;29;20031;-89
2023/12/03 02:13:05;;;;;;;18.73;12.23;;;;;;;-1.78;100.00;99425.59;4936189;29;20588;-90
2023/12/03 02:15:31;;;;;;;20.45;11.45;;;;;;;-1.82;100.00;99413.69;4936256;29;20560;-89
2023/12/03 02:17:56;;;;;;;17.75;11.30;;;;;;;-1.74;100.00;99421.34;4936597;29;20229;-90
2023/12/03 02:20:21;;;;;;;18.38;11.25;;;;;;;-1.79;100.00;99415.41;4936353;29;20488;-90
2023/12/03 02:23:00;;;;;;;21.17;11.95;;;;;;;-1.68;100.00;99435.81;4936453;29;20114;-89
2023/12/03 02:25:26;;;;;;;16.90;10.93;;;;;;;-1.64;100.00;99440.94;4936219;29;20396;-90
2023/12/03 02:27:51;;;;;;;20.83;11.77;;;;;;;-1.75;100.00;99427.31;4936411;29;20027;-90
2023/12/03 02:30:16;;;;;;;17.80;11.70;;;;;;;-1.65;100.00;99443.47;4936275;29;20023;-90
2023/12/03 02:32:42;;;;;;;20.83;11.38;;;;;;;-1.66;100.00;99449.44;4936704;29;20039;-90
2023/12/03 02:35:07;;;;;;;19.10;11.43;;;;;;;-1.67;100.00;99448.56;4936210;29;20145;-90
2023/12/03 02:37:33;;;;;;;21.02;13.07;;;;;;;-1.73;100.00;99455.38;4936733;29;20031;-90
2023/12/03 02:39:58;;;;;;;20.40;12.45;;;;;;;-1.85;100.00;99439.22;4936690;29;20057;-90
2023/12/03 02:42:24;;;;;;;19.42;12.18;;;;;;;-1.78;100.00;99453.69;4912792;29;20103;-90
2023/12/03 02:44:49;;;;;;;21.60;12.77;;;;;;;-2.09;100.00;99406.88;4913361;29;20075;-90
2023/12/03 02:47:14;;;;;;;19.55;12.40;;;;;;;-1.75;100.00;99463.03;4899237;29;20117;-89
2023/12/03 02:49:40;;;;;;;22.60;13.07;;;;;;;-1.80;100.00;99455.38;4901042;29;20031;-90
2023/12/03 02:52:05;;;;;;;19.60;11.05;;;;;;;-1.68;100.00;99467.31;4900754;29;20040;-89
2023/12/03 02:54:30;;;;;;;16.92;11.48;;;;;;;-1.76;100.00;99466.47;4901002;29;20028;-89
2023/12/03 02:56:56;;;;;;;18.48;11.75;;;;;;;-1.73;100.00;99475.81;4901013;29;20039;-90
2023/12/03 02:59:21;;;;;;;18.83;11.15;;;;;;;-1.70;100.00;99475.81;4900570;29;21085;-90
2023/12/03 03:01:46;;;;;;;20.92;11.90;;;;;;;-1.69;100.00;99477.50;4901012;29;20142;-90
2023/12/03 03:04:12;;;;;;;17.48;11.55;;;;;;;-1.68;100.00;99486.91;4900444;29;20031;-89
2023/12/03 03:06:37;;;;;;;18.63;11.90;;;;;;;-1.65;100.00;99487.72;4900633;29;20032;-90
2023/12/03 03:09:03;;;;;;;19.13;11.90;;;;;;;-1.69;100.00;99474.94;4900410;29;20063;-88
2023/12/03 03:11:29;;;;;;;18.40;11.43;;;;;;;-1.61;100.00;99480.91;4900532;29;20080;-90
2023/12/03 03:13:54;;;;;;;18.70;12.35;;;;;;;-1.64;100.00;99486.88;4928337;28;20058;-90
2023/12/03 03:16:24;;;;;;;19.02;11.30;;;;;;;-1.60;100.00;99493.69;4939308;29;20027;-90
2023/12/03 03:18:50;;;;;;;20.20;12.63;;;;;;;-1.64;100.00;99481.78;4941329;29;20376;-89
2023/12/03 03:21:15;;;;;;;17.58;11.68;;;;;;;-1.70;100.00;99473.25;4941462;29;20023;-90
2023/12/03 03:23:40;;;;;;;18.30;11.30;;;;;;;-1.54;100.00;99497.94;4939331;29;20090;-89
2023/12/03 03:26:06;;;;;;;18.40;10.63;;;;;;;-1.61;100.00;99499.63;4939131;29;20039;-90
2023/12/03 03:28:31;;;;;;;19.02;11.45;;;;;;;-1.60;100.00;99509.03;4939196;29;20495;-90
2023/12/03 03:30:58;;;;;;;20.20;11.30;;;;;;;-1.59;100.00;99509.88;4939210;29;20078;-90
2023/12/03 03:33:24;;;;;;;21.20;12.70;;;;;;;-1.69;100.00;99492.81;4938858;29;20499;-90
2023/12/03 03:35:49;;;;;;;19.08;11.27;;;;;;;-1.55;100.00;99514.97;4939362;29;20029;-89
2023/12/03 03:38:14;;;;;;;21.35;12.27;;;;;;;-1.62;100.00;99510.72;4938857;29;20023;-90
2023/12/03 03:40:40;;;;;;;19.60;11.52;;;;;;;-1.63;100.00;99521.78;4939266;29;20477;-90
2023/12/03 03:43:05;;;;;;;21.38;12.82;;;;;;;-1.64;100.00;99522.63;4938910;28;20061;-90
2023/12/03 03:45:31;;;;;;;20.77;12.18;;;;;;;-1.63;100.00;99526.03;4939136;29;20035;-89
2023/12/03 03:47:57;;;;;;;21.73;11.93;;;;;;;-1.77;100.00;99508.13;4938919;29;20042;-89
2023/12/03 03:50:22;;;;;;;20.25;12.93;;;;;;;-1.67;100.00;99527.75;4938496;29;20389;-89
2023/12/03 03:52:48;;;;;;;21.08;13.35;;;;;;;-1.63;100.00;99526.88;4938660;29;20699;-89
2023/12/03 03:55:13;;;;;;;22.25;12.48;;;;;;;-1.60;100.00;99528.56;4938073;29;20034;-88
2023/12/03 03:57:39;;;;;;;21.85;13.48;;;;;;;-1.60;100.00;99529.47;4895666;29;20048;-89
2023/12/03 04:00:05;;;;;;;22.42;13.75;;;;;;;-1.70;100.00;99521.78;4880894;29;20177;-89
2023/12/03 04:02:31;;;;;;;22.52;12.95;;;;;;;-1.62;100.00;99528.59;4880791;29;20044;-89
2023/12/03 04:04:57;;;;;;;22.40;13.93;;;;;;;-1.80;100.00;99509.00;4896316;29;20028;-90
2023/12/03 04:07:22;;;;;;;21.60;13.27;;;;;;;-1.62;100.00;99540.50;4880268;29;20051;-89
2023/12/03 04:09:48;;;;;;;24.80;14.35;;;;;;;-1.65;100.00;99538.78;4880693;29;20509;-89
2023/12/03 04:12:14;;;;;;;22.88;13.05;;;;;;;-1.76;100.00;99530.28;4880284;29;20043;-89
2023/12/03 04:14:40;;;;;;;26.83;14.65;;;;;;;-1.65;100.00;99553.25;4880522;29;20028;-90
2023/12/03 04:17:05;;;;;;;23.52;13.52;;;;;;;-1.62;100.00;99559.22;4896139;29;20127;-89
2023/12/03 04:19:31;;;;;;;24.90;14.20;;;;;;;-1.62;100.00;99560.94;4880365;29;20394;-89
2023/12/03 04:21:56;;;;;;;23.02;13.70;;;;;;;-1.61;100.00;99571.13;4880773;29;20453;-89
2023/12/03 04:24:22;;;;;;;25.00;13.75;;;;;;;-1.68;100.00;99558.38;4880457;29;20047;-89
2023/12/03 04:26:47;;;;;;;24.63;14.52;;;;;;;-1.63;100.00;99567.75;4880281;29;20028;-89
2023/12/03 04:29:12;;;;;;;24.92;14.77;;;;;;;-1.70;100.00;99558.38;4885259;29;20061;-89
2023/12/03 04:31:38;;;;;;;25.92;14.65;;;;;;;-1.57;100.00;99580.50;4895918;29;20135;-89
2023/12/03 04:34:03;;;;;;;24.83;14.75;;;;;;;-1.61;100.00;99577.94;4895961;29;20458;-89
2023/12/03 04:36:29;;;;;;;23.15;14.05;;;;;;;-1.56;100.00;99581.34;4880454;29;20052;-89
2023/12/03 04:38:54;;;;;;;22.75;13.75;;;;;;;-1.54;100.00;99588.19;4895753;29;20058;-89
2023/12/03 04:41:20;;;;;;;26.40;14.73;;;;;;;-1.57;100.00;99588.16;4895276;29;20339;-89
2023/12/03 04:43:46;;;;;;;24.40;14.52;;;;;;;-1.68;100.00;99573.72;4895594;29;20100;-89
2023/12/03 04:46:12;;;;;;;26.48;14.38;;;;;;;-1.60;100.00;99588.19;4895304;29;20080;-89
2023/12/03 04:48:39;;;;;;;27.27;14.93;;;;;;;-1.60;100.00;99594.97;4895465;29;20032;-89
2023/12/03 04:51:05;;;;;;;25.33;14.60;;;;;;;-1.60;100.00;99602.63;4895452;29;20029;-89
2023/12/03 04:53:31;;;;;;;26.70;15.77;;;;;;;-1.74;100.00;99589.00;4879882;29;20111;-89
2023/12/03 04:55:56;;;;;;;27.23;14.73;;;;;;;-1.65;100.00;99601.78;4879765;29;20119;-89
2023/12/03 04:58:22;;;;;;;27.10;15.65;;;;;;;-1.63;100.00;99612.88;4895302;29;20132;-89
2023/12/03 05:00:48;;;;;;;25.52;15.35;;;;;;;-1.63;100.00;99613.72;4927728;29;20134;-89
2023/12/03 05:03:14;;;;;;;26.77;15.25;;;;;;;-1.61;100.00;99613.72;4937185;29;20055;-88
2023/12/03 05:05:39;;;;;;;27.33;14.48;;;;;;;-1.58;100.00;99613.72;4937452;29;20135;-89
2023/12/03 05:08:05;;;;;;;26.45;14.75;;;;;;;-1.61;100.00;99622.22;4937260;29;20510;-90
2023/12/03 05:10:30;;;;;;;25.58;14.75;;;;;;;-1.63;100.00;99620.53;4936097;29;20015;-89
2023/12/03 05:12:56;;;;;;;25.58;14.43;;;;;;;-1.67;100.00;99626.47;4937171;29;20472;-90
2023/12/03 05:15:21;;;;;;;26.98;15.20;;;;;;;-1.62;100.00;99633.28;4936774;29;20027;-90
2023/12/03 05:17:47;;;;;;;26.17;14.50;;;;;;;-1.62;100.00;99617.97;4937530;29;20019;-90
2023/12/03 05:20:12;;;;;;;28.00;15.57;;;;;;;-1.59;100.00;99632.44;4936890;29;20046;-90
2023/12/03 05:22:38;;;;;;;26.45;14.45;;;;;;;-1.69;100.00;99620.50;4937119;29;20464;-91
2023/12/03 05:25:04;;;;;;;25.15;14.32;;;;;;;-1.62;100.00;99642.66;4937040;29;20023;-90
2023/12/03 05:27:29;;;;;;;25.05;14.40;;;;;;;-1.57;100.00;99652.03;4936848;29;20469;-91
2023/12/03 05:29:54;;;;;;;24.02;13.88;;;;;;;-1.67;100.00;99629.03;4936904;29;20432;-91
2023/12/03 05:32:20;;;;;;;27.40;15.23;;;;;;;-1.54;100.00;99649.47;4936887;29;20031;-89
2023/12/03 05:34:46;;;;;;;25.27;14.38;;;;;;;-1.53;100.00;99658.84;4941497;29;20034;-89
2023/12/03 05:37:12;;;;;;;25.20;14.80;;;;;;;-1.52;100.00;99655.47;4939785;29;20030;-90
2023/12/03 05:39:41;;;;;;;26.67;14.95;;;;;;;-1.57;100.00;99657.13;4936614;29;20098;-89
2023/12/03 05:42:06;;;;;;;26.38;14.93;;;;;;;-1.56;100.00;99656.31;4936798;29;20116;-90
2023/12/03 05:44:32;;;;;;;25.90;14.48;;;;;;;-1.56;100.00;99665.63;4936567;29;20118;-90
2023/12/03 05:46:57;;;;;;;27.25;14.98;;;;;;;-1.63;100.00;99652.03;4936987;29;20027;-90
2023/12/03 05:49:23;;;;;;;24.90;14.40;;;;;;;-1.52;100.00;99664.81;4936497;29;20023;-89
2023/12/03 05:51:49;;;;;;;25.58;14.85;;;;;;;-1.55;100.00;99670.78;4936951;29;20038;-90
2023/12/03 05:54:15;;;;;;;23.15;13.55;;;;;;;-1.52;100.00;99672.47;4936496;29;20392;-89
2023/12/03 05:56:40;;;;;;;22.35;13.82;;;;;;;-1.57;100.00;99669.91;4936732;29;20031;-89
2023/12/03 05:59:06;;;;;;;23.80;14.45;;;;;;;-1.55;100.00;99668.22;4936438;29;20126;-90
2023/12/03 06:01:32;;;;;;;25.50;14.68;;;;;;;-1.73;100.00;99649.41;4936458;29;20027;-90
2023/12/03 06:03:57;;;;;;;25.67;14.98;;;;;;;-1.49;100.00;99686.97;4936644;29;20484;-89
2023/12/03 06:06:23;;;;;;;22.50;13.73;;;;;;;-1.54;100.00;99682.69;4936479;29;20480;-89
2023/12/03 06:08:48;;;;;;;22.23;14.07;;;;;;;-1.52;100.00;99690.34;4937006;29;20072;-90
2023/12/03 06:11:14;;;;;;;26.52;14.93;;;;;;;-1.43;100.00;99694.63;4936479;29;20050;-89
2023/12/03 06:13:39;;;;;;;27.13;14.45;;;;;;;-1.39;100.00;99701.44;4936643;29;20106;-90
2023/12/03 06:16:05;;;;;;;26.75;15.13;;;;;;;-1.40;100.00;99695.47;4936592;29;20545;-89
2023/12/03 06:18:31;;;;;;;25.50;15.35;;;;;;;-1.37;100.00;99700.63;4936273;29;20547;-90
2023/12/03 06:20:56;;;;;;;32.17;17.70;;;;;;;-1.35;100.00;99693.81;4937097;29;20023;-90
2023/12/03 06:23:22;;;;;;;25.90;14.73;;;;;;;-1.36;100.00;99696.34;4939917;29;20114;-89
2023/12/03 06:25:48;;;;;;;23.35;12.95;;;;;;;-1.41;100.00;99709.13;4940364;29;20027;-90
2023/12/03 06:28:14;;;;;;;24.25;13.73;;;;;;;-1.40;100.00;99705.69;4940358;29;20376;-90
2023/12/03 06:30:39;;;;;;;27.35;14.70;;;;;;;-1.41;100.00;99709.13;4939966;29;20042;-90
2023/12/03 06:33:04;;;;;;;35.30;17.67;;;;;;;-1.35;100.00;99718.50;4939918;29;20032;-90
2023/12/03 06:35:30;;;;;;;54.13;20.58;;;;;;;-1.39;100.00;99725.31;4916448;29;20131;-90
2023/12/03 06:37:55;;;;;;;34.38;17.65;;;;;;;-1.50;100.00;99726.97;4916547;29;20480;-90
2023/12/03 06:40:21;;;;;;;26.10;15.23;;;;;;;-1.44;100.00;99736.34;4900556;29;20040;-89
2023/12/03 06:42:46;;;;;;;26.15;16.42;;;;;;;-1.45;100.00;99740.59;4900695;29;20036;-89
2023/12/03 06:45:13;;;;;;;31.23;20.75;;;;;;;-1.44;100.00;99747.41;4900642;29;20057;-90
2023/12/03 06:47:38;;;;;;;45.97;28.80;;;;;;;-1.45;100.00;99732.94;4900698;29;20028;-89
2023/12/03 06:50:04;;;;;;;63.03;39.65;;;;;;;-1.42;100.00;99748.28;4916431;29;20034;-90
2023/12/03 06:52:30;;;;;;;75.32;45.85;;;;;;;-1.53;100.00;99737.19;4916535;29;20501;-90
2023/12/03 06:54:55;;;;;;;61.08;38.42;;;;;;;-1.51;100.00;99748.25;4900636;29;20032;-90
2023/12/03 06:57:20;;;;;;;37.03;24.10;;;;;;;-1.43;100.00;99756.81;4900402;29;20509;-90
2023/12/03 06:59:46;;;;;;;40.67;25.17;;;;;;;-1.45;100.00;99744.88;4900708;29;20508;-89
2023/12/03 07:02:11;;;;;;;33.35;20.25;;;;;;;-1.31;100.00;99776.41;4916316;29;20103;-90
2023/12/03 07:04:37;;;;;;;33.33;20.08;;;;;;;-1.43;100.00;99763.59;4916165;29;20136;-90
2023/12/03 07:07:04;;;;;;;28.27;15.65;;;;;;;-1.40;100.00;99773.84;4934270;29;20043;-90
2023/12/03 07:09:30;;;;;;;24.88;14.40;;;;;;;-1.42;100.00;99773.84;4939271;28;20046;-89
2023/12/03 07:11:55;;;;;;;20.38;12.43;;;;;;;-1.38;100.00;99783.22;4939601;29;20118;-89
2023/12/03 07:14:20;;;;;;;24.40;14.05;;;;;;;-1.36;100.00;99788.31;4939285;29;20445;-90
2023/12/03 07:16:46;;;;;;;20.42;12.48;;;;;;;-1.38;100.00;99790.03;4939615;29;20031;-90
2023/12/03 07:19:11;;;;;;;21.02;12.10;;;;;;;-1.51;100.00;99777.22;4939344;29;20019;-90
2023/12/03 07:21:37;;;;;;;25.85;14.90;;;;;;;-1.34;100.00;99794.31;4939201;29;20126;-90
2023/12/03 07:24:03;;;;;;;26.02;15.13;;;;;;;-1.36;100.00;99809.63;4939720;29;20055;-89
2023/12/03 07:26:29;;;;;;;23.73;13.20;;;;;;;-1.37;100.00;99805.34;4915732;29;20036;-90
2023/12/03 07:28:54;;;;;;;25.25;14.25;;;;;;;-1.48;100.00;99796.78;4900039;29;20086;-90
2023/12/03 07:31:19;;;;;;;26.30;14.52;;;;;;;-1.44;100.00;99808.72;4915674;29;20050;-90
2023/12/03 07:33:45;;;;;;;25.75;13.63;;;;;;;-1.41;100.00;99806.19;4914918;29;20028;-89
2023/12/03 07:36:11;;;;;;;19.83;12.80;;;;;;;-1.32;100.00;99815.59;4915544;29;20040;-90
2023/12/03 07:38:36;;;;;;;21.35;13.35;;;;;;;-1.32;100.00;99815.59;4915366;29;20028;-90
2023/12/03 07:41:01;;;;;;;21.48;12.57;;;;;;;-1.28;100.00;99823.28;4899809;29;20719;-90
2023/12/03 07:43:27;;;;;;;20.17;12.38;;;;;;;-1.28;100.00;99830.09;4899413;29;20086;-90
2023/12/03 07:45:52;;;;;;;23.60;13.25;;;;;;;-1.22;100.00;99835.25;4899774;29;20043;-90
2023/12/03 07:48:18;;;;;;;22.73;13.13;;;;;;;-1.21;100.00;99831.84;4919596;29;20084;-91
2023/12/03 07:50:44;;;;;;;26.05;15.55;;;;;;;-1.21;100.00;99831.84;4903293;29;20450;-90
2023/12/03 07:53:10;;;;;;;25.70;14.45;;;;;;;-1.31;100.00;99813.06;4884291;29;20041;-90
2023/12/03 07:55:36;;;;;;;27.77;15.98;;;;;;;-1.16;100.00;99845.47;4880692;29;20040;-90
2023/12/03 07:58:01;;;;;;;34.78;17.98;;;;;;;-1.18;100.00;99842.06;4894329;29;20048;-90
2023/12/03 08:00:27;;;;;;;28.92;17.00;;;;;;;-1.14;100.00;99841.22;4896218;29;20131;-90
2023/12/03 08:02:52;;;;;;;26.73;16.60;;;;;;;-1.13;100.00;99837.84;4896982;29;20055;-90
2023/12/03 08:05:17;;;;;;;23.63;13.65;;;;;;;-1.12;100.00;99852.31;4896206;29;20044;-90
2023/12/03 08:07:43;;;;;;;25.17;14.05;;;;;;;-1.13;100.00;99859.97;4896375;29;20447;-89
2023/12/03 08:10:09;;;;;;;24.00;14.60;;;;;;;-1.09;100.00;99862.56;4896468;29;20040;-90
2023/12/03 08:12:34;;;;;;;23.70;13.68;;;;;;;-1.04;100.00;99873.66;4896564;29;20442;-90
2023/12/03 08:15:00;;;;;;;26.00;14.18;;;;;;;-1.07;100.00;99865.97;4896788;29;20045;-90
2023/12/03 08:17:25;;;;;;;20.85;12.77;;;;;;;-1.08;100.00;99864.25;4896605;29;20046;-89
2023/12/03 08:19:51;;;;;;;23.60;12.40;;;;;;;-0.95;100.00;99877.09;4902709;29;20066;-90
2023/12/03 08:22:16;;;;;;;23.65;13.60;;;;;;;-0.94;100.00;99877.09;4916324;29;20039;-90
2023/12/03 08:24:42;;;;;;;28.35;15.02;;;;;;;-0.91;100.00;99889.88;4940292;29;20040;-90
2023/12/03 08:27:07;;;;;;;34.92;17.05;;;;;;;-1.01;99.78;99877.94;4924519;29;20100;-91
2023/12/03 08:29:34;;;;;;;30.70;16.75;;;;;;;-0.90;99.85;99886.47;4939880;29;20036;-90
2023/12/03 08:32:00;;;;;;;31.15;16.10;;;;;;;-0.85;100.00;99886.47;4940212;29;20056;-90
2023/12/03 08:34:29;;;;;;;25.83;13.98;;;;;;;-0.86;99.87;99875.41;4924036;29;20052;-90
2023/12/03 08:36:56;;;;;;;30.13;15.30;;;;;;;-1.05;99.90;99854.06;4924251;29;20023;-89
2023/12/03 08:39:21;;;;;;;35.03;16.05;;;;;;;-0.83;99.55;99892.47;4938098;29;20051;-90
2023/12/03 08:41:48;;;;;;;29.90;16.45;;;;;;;-0.87;99.18;99891.59;4899065;29;20084;-90
2023/12/03 08:44:13;;;;;;;25.50;14.93;;;;;;;-0.84;98.78;99901.84;4899846;29;20039;-90
2023/12/03 08:46:39;;;;;;;28.48;15.00;;;;;;;-0.88;98.84;99907.81;4899198;29;20123;-90
2023/12/03 08:49:04;;;;;;;26.98;13.43;;;;;;;-0.92;98.71;99906.09;4895771;29;20514;-90
2023/12/03 08:51:30;;;;;;;25.83;14.90;;;;;;;-0.84;98.56;99917.19;4880369;29;20052;-90
2023/12/03 08:53:55;;;;;;;24.40;14.10;;;;;;;-0.83;99.01;99925.72;4895977;29;20177;-90
2023/12/03 08:56:21;;;;;;;24.38;14.65;;;;;;;-0.80;98.99;99931.69;4895699;29;20032;-90
2023/12/03 08:58:48;;;;;;;27.67;15.38;;;;;;;-0.79;99.27;99928.28;4895104;29;20186;-90
2023/12/03 09:01:14;;;;;;;22.70;13.30;;;;;;;-1.01;98.86;99890.72;4891533;29;20685;-90
2023/12/03 09:03:40;;;;;;;24.88;13.93;;;;;;;-0.76;98.64;99930.88;4895164;29;20060;-90
2023/12/03 09:06:06;;;;;;;26.48;15.55;;;;;;;-0.72;97.97;99939.38;4895605;29;20454;-90
2023/12/03 09:08:32;;;;;;;29.10;16.08;;;;;;;-0.74;97.98;99937.69;4895056;29;20079;-90
2023/12/03 09:10:59;;;;;;;39.33;20.63;;;;;;;-0.68;98.79;99950.47;4895465;29;20111;-89
2023/12/03 09:13:24;;;;;;;31.73;21.00;;;;;;;-0.72;98.19;99951.31;4895210;29;20427;-90
2023/12/03 09:15:51;;;;;;;74.50;36.88;;;;;;;-0.73;97.45;99950.47;4895042;29;20613;-90
2023/12/03 09:18:18;;;;;;;36.45;21.75;;;;;;;-0.71;97.42;99950.50;4879411;29;20043;-90
2023/12/03 09:20:45;;;;;;;51.97;31.65;;;;;;;-0.69;97.49;99944.50;4895218;29;20040;-90
2023/12/03 09:23:11;;;;;;;37.45;20.38;;;;;;;-0.66;96.91;99952.22;4879398;29;20448;-90
2023/12/03 09:25:36;;;;;;;38.10;19.88;;;;;;;-0.82;96.95;99935.09;4894951;29;20044;-90
2023/12/03 09:28:02;;;;;;;37.00;16.75;;;;;;;-0.71;96.89;99942.81;4894977;29;20032;-90
2023/12/03 09:30:27;;;;;;;29.15;14.85;;;;;;;-0.64;96.84;99962.44;4894842;29;20032;-90
2023/12/03 09:32:54;;;;;;;44.20;25.77;;;;;;;-0.62;97.12;99959.03;4857609;29;20041;-90
2023/12/03 09:35:20;;;;;;;84.68;48.60;;;;;;;-0.60;97.01;99959.88;4857289;29;20041;-90
2023/12/03 09:37:53;;;;;;;37.35;21.27;;;;;;;-0.62;96.60;99956.50;4864598;29;20565;-90
2023/12/03 09:40:20;;;;;;;49.72;30.52;;;;;;;-0.59;96.47;99964.19;4860547;29;20037;-90
2023/12/03 09:42:47;;;;;;;46.15;30.83;;;;;;;-0.63;96.39;99971.81;4875556;29;20037;-90
2023/12/03 09:45:16;;;;;;;36.83;20.73;;;;;;;-0.63;96.22;99974.38;4860275;29;20069;-90
2023/12/03 09:47:49;;;;;;;41.65;21.48;;;;;;;-0.69;96.28;99962.41;4860107;29;20082;-89
2023/12/03 09:50:20;;;;;;;32.58;18.92;;;;;;;-0.68;96.17;99976.91;4875785;29;20060;-90
2023/12/03 09:52:49;;;;;;;38.08;21.08;;;;;;;-0.66;95.73;99967.56;4860095;29;20052;-90
2023/12/03 09:55:17;;;;;;;33.05;18.48;;;;;;;-0.62;96.43;99978.66;4860024;29;20074;-90
2023/12/03 09:57:44;;;;;;;33.95;16.73;;;;;;;-0.65;96.64;99965.84;4875437;29;20051;-89
2023/12/03 10:00:10;;;;;;;27.40;14.75;;;;;;;-0.68;95.83;99976.91;4860707;29;20066;-90
2023/12/03 10:02:36;;;;;;;36.03;19.80;;;;;;;-0.80;96.03;99951.28;4860190;29;20036;-90
2023/12/03 10:07:55;;;;;;;38.38;20.27;;;;;;;-0.66;96.57;99979.50;5036105;23;20409;-94
2023/12/03 10:14:34;;;;;;;33.80;19.13;;;;;;;-0.65;96.14;99978.63;4954931;29;20458;-93
2023/12/03 10:17:25;;;;;;;30.50;16.50;;;;;;;-0.65;96.44;99973.53;4879105;29;20519;-95
2023/12/03 10:23:58;;;;;;;24.10;14.40;;;;;;;-0.69;96.21;99956.44;4840566;29;20098;-90
2023/12/03 10:26:26;;;;;;;22.92;12.75;;;;;;;-0.56;95.08;99960.75;4821282;29;20106;-93
2023/12/03 10:29:52;;;;;;;20.70;12.45;;;;;;;-0.58;95.33;99963.31;4821010;29;20472;-89
2023/12/03 10:52:09;;;;;;;38.85;21.83;;;;;;;-0.40;95.67;99985.56;5011125;23;20374;-94
2023/12/03 11:08:22;;;;;;;36.38;19.23;;;;;;;0.03;95.70;100013.81;4977769;28;20049;-96
2023/12/03 11:10:52;;;;;;;24.77;13.48;;;;;;;0.07;95.48;100019.78;4958308;28;20441;-89
2023/12/03 11:13:18;;;;;;;33.90;18.73;;;;;;;0.05;95.34;100013.84;4973055;28;20043;-89
2023/12/03 11:15:49;;;;;;;25.20;14.00;;;;;;;0.03;94.70;100018.09;4953523;28;20404;-89
2023/12/03 11:18:16;;;;;;;30.40;19.27;;;;;;;-0.04;94.62;100000.16;4953799;29;20126;-88
2023/12/03 11:20:44;;;;;;;34.25;17.00;;;;;;;-0.07;94.65;100009.53;4950877;29;20551;-88
2023/12/03 11:23:57;;;;;;;34.47;17.50;;;;;;;0.05;94.62;100021.50;4953545;28;20036;-88
2023/12/03 11:26:43;;;;;;;31.23;17.20;;;;;;;-0.09;93.86;100004.38;4938519;29;20043;-89
2023/12/03 11:29:09;;;;;;;28.95;14.80;;;;;;;-0.28;93.97;99982.19;4934158;29;20449;-89
2023/12/03 11:31:35;;;;;;;31.77;18.80;;;;;;;-0.10;93.61;100014.63;4934513;29;20052;-89
2023/12/03 11:34:03;;;;;;;35.17;20.95;;;;;;;-0.08;93.53;100023.19;4934754;29;20829;-90
2023/12/03 11:39:51;;;;;;;34.08;18.80;;;;;;;-0.36;93.96;99991.53;4950054;29;20049;-94
2023/12/03 11:42:18;;;;;;;33.78;17.60;;;;;;;-0.27;94.01;99999.25;4934740;29;20039;-89
2023/12/03 11:48:54;;;;;;;43.10;22.17;;;;;;;-0.15;94.39;100014.63;4899335;29;20108;-94
2023/12/03 12:10:14;;;;;;;26.70;14.13;;;;;;;-0.20;94.12;100025.72;4973322;28;20119;-88
2023/12/03 12:12:43;;;;;;;31.27;15.57;;;;;;;-0.26;94.17;100013.72;4958175;28;20310;-93
2023/12/03 12:36:44;;;;;;;46.42;25.42;;;;;;;-0.26;93.73;100008.63;4922102;29;20099;-94
2023/12/03 12:39:28;;;;;;;35.45;21.60;;;;;;;-0.20;93.51;100011.22;4860211;29;20396;-91
2023/12/03 12:48:47;;;;;;;42.25;20.77;;;;;;;-0.18;94.54;100022.28;4916123;29;20111;-93